sensor_id;sensor_type;location;lat;lon;timestamp;temperature;humidity
72591;SHT31;60625;51.212;5.952;2023-01-06T00:03:51;11.34;85.55
72591;SHT31;60625;51.212;5.952;2023-01-06T00:08:58;11.34;85.48
72591;SHT31;60625;51.212;5.952;2023-01-06T00:14:03;11.32;85.32
72591;SHT31;60625;51.212;5.952;2023-01-06T00:19:04;11.31;85.07
72591;SHT31;60625;51.212;5.952;2023-01-06T00:24:04;11.30;84.80
72591;SHT31;60625;51.212;5.952;2023-01-06T00:29:05;11.28;84.57
72591;SHT31;60625;51.212;5.952;2023-01-06T00:34:06;11.26;84.21
72591;SHT31;60625;51.212;5.952;2023-01-06T00:39:06;11.24;83.96
72591;SHT31;60625;51.212;5.952;2023-01-06T00:44:07;11.23;83.72
72591;SHT31;60625;51.212;5.952;2023-01-06T00:49:08;11.23;83.34
72591;SHT31;60625;51.212;5.952;2023-01-06T00:54:09;11.24;83.13
72591;SHT31;60625;51.212;5.952;2023-01-06T00:59:12;11.22;82.82
72591;SHT31;60625;51.212;5.952;2023-01-06T01:04:16;11.23;82.58
72591;SHT31;60625;51.212;5.952;2023-01-06T01:09:19;11.23;82.44
72591;SHT31;60625;51.212;5.952;2023-01-06T01:14:23;11.23;82.26
72591;SHT31;60625;51.212;5.952;2023-01-06T01:19:24;11.23;82.15
72591;SHT31;60625;51.212;5.952;2023-01-06T01:24:25;11.24;81.97
72591;SHT31;60625;51.212;5.952;2023-01-06T01:29:26;11.24;81.76
72591;SHT31;60625;51.212;5.952;2023-01-06T01:34:26;11.25;81.63
72591;SHT31;60625;51.212;5.952;2023-01-06T01:39:27;11.24;81.65
72591;SHT31;60625;51.212;5.952;2023-01-06T01:50:03;11.22;81.46
72591;SHT31;60625;51.212;5.952;2023-01-06T01:55:27;11.22;81.17
72591;SHT31;60625;51.212;5.952;2023-01-06T02:00:29;11.22;81.02
72591;SHT31;60625;51.212;5.952;2023-01-06T02:05:30;11.22;80.69
72591;SHT31;60625;51.212;5.952;2023-01-06T02:10:33;11.21;80.61
72591;SHT31;60625;51.212;5.952;2023-01-06T02:15:33;11.21;80.44
72591;SHT31;60625;51.212;5.952;2023-01-06T02:43:24;11.18;79.44
72591;SHT31;60625;51.212;5.952;2023-01-06T02:54:19;11.18;78.72
72591;SHT31;60625;51.212;5.952;2023-01-06T02:59:39;11.19;78.82
72591;SHT31;60625;51.212;5.952;2023-01-06T03:04:52;11.19;78.88
72591;SHT31;60625;51.212;5.952;2023-01-06T03:09:58;11.19;79.08
72591;SHT31;60625;51.212;5.952;2023-01-06T03:15:01;11.20;79.30
72591;SHT31;60625;51.212;5.952;2023-01-06T03:20:04;11.21;79.47
72591;SHT31;60625;51.212;5.952;2023-01-06T03:25:07;11.23;79.61
72591;SHT31;60625;51.212;5.952;2023-01-06T03:30:09;11.24;79.73
72591;SHT31;60625;51.212;5.952;2023-01-06T03:40:48;11.25;79.53
72591;SHT31;60625;51.212;5.952;2023-01-06T03:51:24;11.27;79.43
72591;SHT31;60625;51.212;5.952;2023-01-06T03:56:37;11.26;79.39
72591;SHT31;60625;51.212;5.952;2023-01-06T04:01:42;11.26;79.31
72591;SHT31;60625;51.212;5.952;2023-01-06T04:06:43;11.26;79.29
72591;SHT31;60625;51.212;5.952;2023-01-06T04:11:45;11.26;79.22
72591;SHT31;60625;51.212;5.952;2023-01-06T04:17:05;11.28;78.89
72591;SHT31;60625;51.212;5.952;2023-01-06T04:22:06;11.30;78.70
72591;SHT31;60625;51.212;5.952;2023-01-06T04:27:07;11.32;78.74
72591;SHT31;60625;51.212;5.952;2023-01-06T04:32:08;11.32;78.86
72591;SHT31;60625;51.212;5.952;2023-01-06T04:37:09;11.32;78.90
72591;SHT31;60625;51.212;5.952;2023-01-06T04:42:10;11.31;79.00
72591;SHT31;60625;51.212;5.952;2023-01-06T04:47:10;11.30;79.08
72591;SHT31;60625;51.212;5.952;2023-01-06T04:52:11;11.28;79.20
72591;SHT31;60625;51.212;5.952;2023-01-06T04:57:12;11.26;79.32
72591;SHT31;60625;51.212;5.952;2023-01-06T05:02:12;11.24;79.30
72591;SHT31;60625;51.212;5.952;2023-01-06T05:07:13;11.24;79.29
72591;SHT31;60625;51.212;5.952;2023-01-06T05:12:13;11.24;79.31
72591;SHT31;60625;51.212;5.952;2023-01-06T05:17:13;11.22;79.45
72591;SHT31;60625;51.212;5.952;2023-01-06T05:22:14;11.18;79.57
72591;SHT31;60625;51.212;5.952;2023-01-06T05:27:15;11.17;79.68
72591;SHT31;60625;51.212;5.952;2023-01-06T05:32:16;11.16;79.66
72591;SHT31;60625;51.212;5.952;2023-01-06T05:37:16;11.15;79.71
72591;SHT31;60625;51.212;5.952;2023-01-06T05:42:17;11.15;79.79
72591;SHT31;60625;51.212;5.952;2023-01-06T05:47:17;11.14;79.93
72591;SHT31;60625;51.212;5.952;2023-01-06T05:52:17;11.12;80.07
72591;SHT31;60625;51.212;5.952;2023-01-06T05:57:18;11.10;80.17
72591;SHT31;60625;51.212;5.952;2023-01-06T06:02:18;11.07;80.25
72591;SHT31;60625;51.212;5.952;2023-01-06T06:07:18;11.05;80.29
72591;SHT31;60625;51.212;5.952;2023-01-06T06:12:19;11.05;80.22
72591;SHT31;60625;51.212;5.952;2023-01-06T06:17:19;11.05;80.18
72591;SHT31;60625;51.212;5.952;2023-01-06T06:22:20;11.06;80.09
72591;SHT31;60625;51.212;5.952;2023-01-06T06:27:21;11.07;80.04
72591;SHT31;60625;51.212;5.952;2023-01-06T06:32:21;11.07;80.01
72591;SHT31;60625;51.212;5.952;2023-01-06T06:37:22;11.06;80.07
72591;SHT31;60625;51.212;5.952;2023-01-06T06:42:22;11.05;80.00
72591;SHT31;60625;51.212;5.952;2023-01-06T06:47:23;11.05;79.92
72591;SHT31;60625;51.212;5.952;2023-01-06T06:52:23;11.07;79.92
72591;SHT31;60625;51.212;5.952;2023-01-06T06:57:24;11.08;79.86
72591;SHT31;60625;51.212;5.952;2023-01-06T07:02:24;11.12;79.93
72591;SHT31;60625;51.212;5.952;2023-01-06T07:07:25;11.12;80.08
72591;SHT31;60625;51.212;5.952;2023-01-06T07:12:25;11.14;80.12
72591;SHT31;60625;51.212;5.952;2023-01-06T07:17:26;11.14;80.22
72591;SHT31;60625;51.212;5.952;2023-01-06T07:22:27;11.15;80.22
72591;SHT31;60625;51.212;5.952;2023-01-06T07:27:28;11.18;80.19
72591;SHT31;60625;51.212;5.952;2023-01-06T07:32:28;11.21;80.08
72591;SHT31;60625;51.212;5.952;2023-01-06T07:37:29;11.25;80.32
72591;SHT31;60625;51.212;5.952;2023-01-06T07:42:29;11.24;80.72
72591;SHT31;60625;51.212;5.952;2023-01-06T07:47:29;11.23;80.98
72591;SHT31;60625;51.212;5.952;2023-01-06T07:52:30;11.21;81.21
72591;SHT31;60625;51.212;5.952;2023-01-06T07:57:31;11.20;81.50
72591;SHT31;60625;51.212;5.952;2023-01-06T08:02:31;11.20;81.63
72591;SHT31;60625;51.212;5.952;2023-01-06T08:07:32;11.19;82.07
72591;SHT31;60625;51.212;5.952;2023-01-06T08:12:32;11.16;82.40
72591;SHT31;60625;51.212;5.952;2023-01-06T08:17:32;11.14;82.48
72591;SHT31;60625;51.212;5.952;2023-01-06T08:22:33;11.14;82.78
72591;SHT31;60625;51.212;5.952;2023-01-06T08:27:34;11.15;82.72
72591;SHT31;60625;51.212;5.952;2023-01-06T08:32:34;11.17;82.80
72591;SHT31;60625;51.212;5.952;2023-01-06T08:37:35;11.17;82.89
72591;SHT31;60625;51.212;5.952;2023-01-06T08:42:35;11.17;83.08
72591;SHT31;60625;51.212;5.952;2023-01-06T08:47:36;11.15;83.72
72591;SHT31;60625;51.212;5.952;2023-01-06T08:52:36;11.09;84.85
72591;SHT31;60625;51.212;5.952;2023-01-06T08:57:37;11.01;85.46
72591;SHT31;60625;51.212;5.952;2023-01-06T09:02:37;10.95;85.82
72591;SHT31;60625;51.212;5.952;2023-01-06T09:07:38;10.93;85.94
72591;SHT31;60625;51.212;5.952;2023-01-06T09:12:38;10.94;86.02
72591;SHT31;60625;51.212;5.952;2023-01-06T09:17:39;10.97;85.93
72591;SHT31;60625;51.212;5.952;2023-01-06T09:22:40;10.98;86.35
72591;SHT31;60625;51.212;5.952;2023-01-06T09:27:40;10.98;86.40
72591;SHT31;60625;51.212;5.952;2023-01-06T09:32:41;10.99;86.33
72591;SHT31;60625;51.212;5.952;2023-01-06T09:37:41;11.01;86.27
72591;SHT31;60625;51.212;5.952;2023-01-06T09:42:48;11.05;86.34
72591;SHT31;60625;51.212;5.952;2023-01-06T09:48:16;11.10;86.22
72591;SHT31;60625;51.212;5.952;2023-01-06T09:53:25;11.17;86.11
72591;SHT31;60625;51.212;5.952;2023-01-06T10:03:59;11.27;85.83
72591;SHT31;60625;51.212;5.952;2023-01-06T10:20:31;11.49;85.26
72591;SHT31;60625;51.212;5.952;2023-01-06T10:25:45;11.60;84.99
72591;SHT31;60625;51.212;5.952;2023-01-06T10:30:53;11.80;84.64
72591;SHT31;60625;51.212;5.952;2023-01-06T10:35:57;12.07;83.87
72591;SHT31;60625;51.212;5.952;2023-01-06T10:41:01;12.13;83.29
72591;SHT31;60625;51.212;5.952;2023-01-06T10:46:25;12.11;82.95
72591;SHT31;60625;51.212;5.952;2023-01-06T10:51:34;12.11;82.62
72591;SHT31;60625;51.212;5.952;2023-01-06T10:56:39;12.13;82.46
72591;SHT31;60625;51.212;5.952;2023-01-06T11:01:52;12.21;82.40
72591;SHT31;60625;51.212;5.952;2023-01-06T11:06:57;12.32;81.94
72591;SHT31;60625;51.212;5.952;2023-01-06T11:12:03;12.38;81.53
72591;SHT31;60625;51.212;5.952;2023-01-06T11:17:12;12.45;81.21
72591;SHT31;60625;51.212;5.952;2023-01-06T11:22:33;12.50;81.00
72591;SHT31;60625;51.212;5.952;2023-01-06T11:27:39;12.52;80.88
72591;SHT31;60625;51.212;5.952;2023-01-06T11:32:39;12.53;80.54
72591;SHT31;60625;51.212;5.952;2023-01-06T11:37:41;12.60;80.45
72591;SHT31;60625;51.212;5.952;2023-01-06T11:42:42;12.68;80.13
72591;SHT31;60625;51.212;5.952;2023-01-06T11:47:47;12.73;79.82
72591;SHT31;60625;51.212;5.952;2023-01-06T11:53:03;12.89;79.51
72591;SHT31;60625;51.212;5.952;2023-01-06T11:58:17;12.97;79.46
72591;SHT31;60625;51.212;5.952;2023-01-06T12:03:30;13.03;79.57
72591;SHT31;60625;51.212;5.952;2023-01-06T12:13:58;13.00;80.05
72591;SHT31;60625;51.212;5.952;2023-01-06T12:18:59;12.90;80.32
72591;SHT31;60625;51.212;5.952;2023-01-06T12:24:00;12.75;80.93
72591;SHT31;60625;51.212;5.952;2023-01-06T12:29:04;12.66;81.76
72591;SHT31;60625;51.212;5.952;2023-01-06T12:34:11;12.55;82.23
72591;SHT31;60625;51.212;5.952;2023-01-06T12:50:21;12.24;84.43
72591;SHT31;60625;51.212;5.952;2023-01-06T13:01:23;12.08;85.47
72591;SHT31;60625;51.212;5.952;2023-01-06T13:06:40;12.13;85.63
72591;SHT31;60625;51.212;5.952;2023-01-06T13:12:11;12.16;85.82
72591;SHT31;60625;51.212;5.952;2023-01-06T13:23:12;12.25;85.53
72591;SHT31;60625;51.212;5.952;2023-01-06T13:39:40;12.25;85.13
72591;SHT31;60625;51.212;5.952;2023-01-06T13:44:44;12.26;85.19
72591;SHT31;60625;51.212;5.952;2023-01-06T13:49:46;12.27;85.19
72591;SHT31;60625;51.212;5.952;2023-01-06T14:04:53;12.15;85.36
72591;SHT31;60625;51.212;5.952;2023-01-06T14:09:53;12.09;85.57
72591;SHT31;60625;51.212;5.952;2023-01-06T14:15:37;12.07;85.67
72591;SHT31;60625;51.212;5.952;2023-01-06T14:20:26;12.05;85.75
72591;SHT31;60625;51.212;5.952;2023-01-06T14:25:36;11.99;86.13
72591;SHT31;60625;51.212;5.952;2023-01-06T14:30:41;11.91;86.63
72591;SHT31;60625;51.212;5.952;2023-01-06T14:35:42;11.86;86.93
72591;SHT31;60625;51.212;5.952;2023-01-06T14:40:52;11.83;87.21
72591;SHT31;60625;51.212;5.952;2023-01-06T14:45:56;11.82;87.50
72591;SHT31;60625;51.212;5.952;2023-01-06T14:51:07;11.83;87.55
72591;SHT31;60625;51.212;5.952;2023-01-06T14:56:16;11.84;87.52
72591;SHT31;60625;51.212;5.952;2023-01-06T15:01:21;11.81;87.58
72591;SHT31;60625;51.212;5.952;2023-01-06T15:06:25;11.77;87.63
72591;SHT31;60625;51.212;5.952;2023-01-06T15:11:29;11.76;87.58
72591;SHT31;60625;51.212;5.952;2023-01-06T15:21:40;11.70;87.82
72591;SHT31;60625;51.212;5.952;2023-01-06T15:26:44;11.67;87.72
72591;SHT31;60625;51.212;5.952;2023-01-06T15:31:45;11.64;87.77
72591;SHT31;60625;51.212;5.952;2023-01-06T15:36:49;11.63;87.71
72591;SHT31;60625;51.212;5.952;2023-01-06T15:41:53;11.60;87.67
72591;SHT31;60625;51.212;5.952;2023-01-06T15:47:09;11.58;87.69
72591;SHT31;60625;51.212;5.952;2023-01-06T15:57:38;11.55;87.80
72591;SHT31;60625;51.212;5.952;2023-01-06T16:02:39;11.55;87.79
72591;SHT31;60625;51.212;5.952;2023-01-06T16:07:40;11.51;87.75
72591;SHT31;60625;51.212;5.952;2023-01-06T16:12:43;11.52;87.53
72591;SHT31;60625;51.212;5.952;2023-01-06T16:17:44;11.52;87.43
72591;SHT31;60625;51.212;5.952;2023-01-06T16:22:49;11.51;87.30
72591;SHT31;60625;51.212;5.952;2023-01-06T16:27:54;11.50;87.21
72591;SHT31;60625;51.212;5.952;2023-01-06T16:32:59;11.49;87.19
72591;SHT31;60625;51.212;5.952;2023-01-06T16:38:00;11.49;87.17
72591;SHT31;60625;51.212;5.952;2023-01-06T16:43:01;11.48;87.24
72591;SHT31;60625;51.212;5.952;2023-01-06T16:48:02;11.48;87.23
72591;SHT31;60625;51.212;5.952;2023-01-06T16:53:17;11.46;87.26
72591;SHT31;60625;51.212;5.952;2023-01-06T16:58:24;11.44;87.19
72591;SHT31;60625;51.212;5.952;2023-01-06T17:03:29;11.43;87.20
72591;SHT31;60625;51.212;5.952;2023-01-06T17:08:35;11.42;87.26
72591;SHT31;60625;51.212;5.952;2023-01-06T17:13:38;11.37;87.53
72591;SHT31;60625;51.212;5.952;2023-01-06T17:18:48;11.32;87.56
72591;SHT31;60625;51.212;5.952;2023-01-06T17:29:17;11.22;87.50
72591;SHT31;60625;51.212;5.952;2023-01-06T17:34:21;11.20;87.50
72591;SHT31;60625;51.212;5.952;2023-01-06T17:39:33;11.20;87.43
72591;SHT31;60625;51.212;5.952;2023-01-06T17:44:40;11.19;87.38
72591;SHT31;60625;51.212;5.952;2023-01-06T17:49:50;11.19;87.21
72591;SHT31;60625;51.212;5.952;2023-01-06T18:00:29;11.20;86.96
72591;SHT31;60625;51.212;5.952;2023-01-06T18:10:38;11.26;86.67
72591;SHT31;60625;51.212;5.952;2023-01-06T18:15:47;11.30;86.56
72591;SHT31;60625;51.212;5.952;2023-01-06T18:31:25;11.39;86.24
72591;SHT31;60625;51.212;5.952;2023-01-06T18:36:33;11.41;86.30
72591;SHT31;60625;51.212;5.952;2023-01-06T18:41:33;11.41;86.50
72591;SHT31;60625;51.212;5.952;2023-01-06T18:46:34;11.40;86.81
72591;SHT31;60625;51.212;5.952;2023-01-06T18:51:35;11.37;87.13
72591;SHT31;60625;51.212;5.952;2023-01-06T18:56:35;11.36;87.22
72591;SHT31;60625;51.212;5.952;2023-01-06T19:06:52;11.33;87.67
72591;SHT31;60625;51.212;5.952;2023-01-06T19:17:20;11.30;87.79
72591;SHT31;60625;51.212;5.952;2023-01-06T19:22:40;11.30;87.79
72591;SHT31;60625;51.212;5.952;2023-01-06T19:32:49;11.31;87.51
72591;SHT31;60625;51.212;5.952;2023-01-06T19:38:00;11.32;87.37
72591;SHT31;60625;51.212;5.952;2023-01-06T19:43:15;11.34;87.20
72591;SHT31;60625;51.212;5.952;2023-01-06T19:58:50;11.39;86.74
72591;SHT31;60625;51.212;5.952;2023-01-06T20:03:55;11.41;86.60
72591;SHT31;60625;51.212;5.952;2023-01-06T20:08:56;11.43;86.46
72591;SHT31;60625;51.212;5.952;2023-01-06T20:13:57;11.44;86.40
72591;SHT31;60625;51.212;5.952;2023-01-06T20:18:57;11.44;86.40
72591;SHT31;60625;51.212;5.952;2023-01-06T20:23:58;11.44;86.31
72591;SHT31;60625;51.212;5.952;2023-01-06T20:28:58;11.45;86.29
72591;SHT31;60625;51.212;5.952;2023-01-06T20:34:00;11.45;86.21
72591;SHT31;60625;51.212;5.952;2023-01-06T20:39:01;11.45;86.14
72591;SHT31;60625;51.212;5.952;2023-01-06T20:44:01;11.45;86.02
72591;SHT31;60625;51.212;5.952;2023-01-06T20:49:02;11.45;85.96
72591;SHT31;60625;51.212;5.952;2023-01-06T20:54:02;11.44;85.90
72591;SHT31;60625;51.212;5.952;2023-01-06T20:59:05;11.44;85.82
72591;SHT31;60625;51.212;5.952;2023-01-06T21:04:06;11.44;85.79
72591;SHT31;60625;51.212;5.952;2023-01-06T21:09:06;11.44;85.71
72591;SHT31;60625;51.212;5.952;2023-01-06T21:14:07;11.43;85.63
72591;SHT31;60625;51.212;5.952;2023-01-06T21:19:08;11.42;85.60
72591;SHT31;60625;51.212;5.952;2023-01-06T21:24:08;11.41;85.46
72591;SHT31;60625;51.212;5.952;2023-01-06T21:29:08;11.41;85.38
72591;SHT31;60625;51.212;5.952;2023-01-06T21:34:09;11.41;85.28
72591;SHT31;60625;51.212;5.952;2023-01-06T21:39:10;11.38;85.21
72591;SHT31;60625;51.212;5.952;2023-01-06T21:44:11;11.34;85.21
72591;SHT31;60625;51.212;5.952;2023-01-06T21:49:11;11.30;85.21
72591;SHT31;60625;51.212;5.952;2023-01-06T21:54:12;11.25;85.18
72591;SHT31;60625;51.212;5.952;2023-01-06T21:59:12;11.20;85.18
72591;SHT31;60625;51.212;5.952;2023-01-06T22:04:13;11.14;85.19
72591;SHT31;60625;51.212;5.952;2023-01-06T22:09:13;11.07;85.20
72591;SHT31;60625;51.212;5.952;2023-01-06T22:14:16;11.00;85.26
72591;SHT31;60625;51.212;5.952;2023-01-06T22:19:17;10.93;85.32
72591;SHT31;60625;51.212;5.952;2023-01-06T22:24:18;10.88;85.40
72591;SHT31;60625;51.212;5.952;2023-01-06T22:29:19;10.85;85.49
72591;SHT31;60625;51.212;5.952;2023-01-06T22:34:19;10.82;85.53
72591;SHT31;60625;51.212;5.952;2023-01-06T22:39:20;10.80;85.52
72591;SHT31;60625;51.212;5.952;2023-01-06T22:44:20;10.81;85.60
72591;SHT31;60625;51.212;5.952;2023-01-06T22:49:21;10.82;85.60
72591;SHT31;60625;51.212;5.952;2023-01-06T22:54:21;10.84;85.64
72591;SHT31;60625;51.212;5.952;2023-01-06T22:59:22;10.86;85.68
72591;SHT31;60625;51.212;5.952;2023-01-06T23:04:22;10.91;85.61
72591;SHT31;60625;51.212;5.952;2023-01-06T23:09:22;10.95;85.58
72591;SHT31;60625;51.212;5.952;2023-01-06T23:14:23;10.98;85.51
72591;SHT31;60625;51.212;5.952;2023-01-06T23:19:24;11.02;85.49
72591;SHT31;60625;51.212;5.952;2023-01-06T23:24:24;11.05;85.39
72591;SHT31;60625;51.212;5.952;2023-01-06T23:29:25;11.07;85.30
72591;SHT31;60625;51.212;5.952;2023-01-06T23:34:25;11.08;85.23
72591;SHT31;60625;51.212;5.952;2023-01-06T23:39:28;11.06;85.18
72591;SHT31;60625;51.212;5.952;2023-01-06T23:44:28;11.03;85.21
72591;SHT31;60625;51.212;5.952;2023-01-06T23:49:29;11.00;85.23
72591;SHT31;60625;51.212;5.952;2023-01-06T23:54:29;10.96;85.25
72591;SHT31;60625;51.212;5.952;2023-01-06T23:59:30;10.95;85.31
